Terminal Aerodrome Forecast
Issued by NWS

Home | Current Version | Previous Version | Text Only | Print | Product List | Glossary On
Versions: 1 2 3 4 5 6 7 8 9 10 11 12 13
000
FTUS43 KLSX 220500
TAFSUS
TAF
KSUS 220520Z 2206/2306 VRB03KT P6SM SKC
     FM220800 VRB03KT P6SM SKC
      TEMPO 2208/2211 2SM BR
     FM221200 11004KT P6SM SKC
     FM221700 13007KT P6SM SKC=

USA.gov is the U.S. government's official web portal to all federal, state and local government web resources and services.